createdAt,value
2023-02-23T00:02:09.912Z,-5.93
2023-02-23T00:04:38.355Z,-6.00
2023-02-23T00:07:08.931Z,-6.03
2023-02-23T00:09:36.369Z,-6.19
2023-02-23T00:12:08.544Z,-6.34
2023-02-23T00:14:38.300Z,-6.41
2023-02-23T00:17:15.156Z,-6.41
2023-02-23T00:19:46.298Z,-6.52
2023-02-23T00:22:13.936Z,-6.59
2023-02-23T00:24:43.128Z,-6.64
2023-02-23T00:27:13.662Z,-6.69
2023-02-23T00:29:41.369Z,-6.74
2023-02-23T00:32:08.654Z,-6.82
2023-02-23T00:34:37.058Z,-6.94
2023-02-23T00:37:04.367Z,-7.03
2023-02-23T00:39:31.722Z,-7.14
2023-02-23T00:42:03.786Z,-7.14
2023-02-23T00:44:33.895Z,-7.17
2023-02-23T00:47:01.786Z,-7.16
2023-02-23T00:49:29.258Z,-7.10
2023-02-23T00:51:56.369Z,-7.12
2023-02-23T00:54:23.651Z,-7.11
2023-02-23T00:56:51.618Z,-7.15
2023-02-23T00:59:19.759Z,-7.20
2023-02-23T01:01:47.363Z,-7.23
2023-02-23T01:04:15.179Z,-7.27
2023-02-23T01:06:42.911Z,-7.29
2023-02-23T01:09:13.877Z,-7.32
2023-02-23T01:11:41.794Z,-7.30
2023-02-23T01:14:10.962Z,-7.24
2023-02-23T01:16:39.193Z,-7.23
2023-02-23T01:19:07.067Z,-7.25
2023-02-23T01:21:38.292Z,-7.32
2023-02-23T01:24:07.024Z,-7.39
2023-02-23T01:26:38.188Z,-7.34
2023-02-23T01:29:11.720Z,-7.41
2023-02-23T01:31:42.767Z,-7.47
2023-02-23T01:34:12.451Z,-7.58
2023-02-23T01:36:42.104Z,-7.68
2023-02-23T01:39:13.262Z,-7.79
2023-02-23T01:41:44.857Z,-7.86
2023-02-23T01:44:14.655Z,-7.96
2023-02-23T01:46:46.666Z,-8.09
2023-02-23T01:49:25.741Z,-8.22
2023-02-23T01:52:01.576Z,-8.34
2023-02-23T01:54:39.409Z,-8.43
2023-02-23T01:57:10.963Z,-8.49
2023-02-23T01:59:42.743Z,-8.59
2023-02-23T02:02:10.131Z,-8.71
2023-02-23T02:04:44.774Z,-8.81
2023-02-23T02:07:35.299Z,-8.90
2023-02-23T02:10:11.715Z,-8.98
2023-02-23T02:12:44.635Z,-8.91
2023-02-23T02:15:17.826Z,-8.89
2023-02-23T02:17:48.485Z,-8.95
2023-02-23T02:20:33.933Z,-9.04
2023-02-23T02:23:09.816Z,-9.06
2023-02-23T02:26:35.872Z,-9.13
2023-02-23T02:29:38.750Z,-9.21
2023-02-23T02:32:43.795Z,-9.29
2023-02-23T02:35:29.203Z,-9.31
2023-02-23T02:38:07.059Z,-9.35
2023-02-23T02:41:04.187Z,-9.37
2023-02-23T02:43:43.106Z,-9.48
2023-02-23T02:46:25.090Z,-9.47
2023-02-23T02:49:09.940Z,-9.42
2023-02-23T02:52:20.314Z,-9.45
2023-02-23T02:54:54.192Z,-9.48
2023-02-23T02:57:26.750Z,-9.56
2023-02-23T03:00:12.525Z,-9.59
2023-02-23T03:02:59.799Z,-9.66
2023-02-23T03:06:11.255Z,-9.77
2023-02-23T03:09:05.146Z,-9.89
2023-02-23T03:11:58.353Z,-9.90
2023-02-23T03:15:00.058Z,-9.87
2023-02-23T03:18:20.906Z,-9.88
2023-02-23T03:21:12.599Z,-9.86
2023-02-23T03:24:03.158Z,-9.85
2023-02-23T03:26:59.611Z,-9.80
2023-02-23T03:30:02.079Z,-9.74
2023-02-23T03:33:00.808Z,-9.77
2023-02-23T03:36:15.728Z,-9.83
2023-02-23T03:39:08.997Z,-9.97
2023-02-23T03:42:01.731Z,-10.09
2023-02-23T03:44:53.010Z,-10.24
2023-02-23T03:47:43.628Z,-10.33
2023-02-23T03:50:36.506Z,-10.38
2023-02-23T03:53:24.667Z,-10.38
2023-02-23T03:56:15.040Z,-10.44
2023-02-23T03:59:07.891Z,-10.49
2023-02-23T04:01:55.128Z,-10.48
2023-02-23T04:04:43.551Z,-10.48
2023-02-23T04:07:34.421Z,-10.48
2023-02-23T04:10:21.332Z,-10.47
2023-02-23T04:13:15.549Z,-10.49
2023-02-23T04:15:58.728Z,-10.53
2023-02-23T04:18:35.159Z,-10.57
2023-02-23T04:21:03.527Z,-10.60
2023-02-23T04:23:31.541Z,-10.63
2023-02-23T04:25:59.551Z,-10.63
2023-02-23T04:28:28.300Z,-10.62
2023-02-23T04:30:55.807Z,-10.64
2023-02-23T04:33:24.262Z,-10.64
2023-02-23T04:35:54.417Z,-10.66
2023-02-23T04:38:23.473Z,-10.65
2023-02-23T04:40:51.533Z,-10.66
2023-02-23T04:43:18.902Z,-10.67
2023-02-23T04:45:46.539Z,-10.67
2023-02-23T04:48:14.594Z,-10.65
2023-02-23T04:50:42.607Z,-10.67
2023-02-23T04:53:10.190Z,-10.67
2023-02-23T04:55:38.526Z,-10.64
2023-02-23T04:58:06.985Z,-10.64
2023-02-23T05:00:34.333Z,-10.62
2023-02-23T05:03:01.793Z,-10.58
2023-02-23T05:05:29.806Z,-10.54
2023-02-23T05:07:57.349Z,-10.49
2023-02-23T05:10:25.033Z,-10.41
2023-02-23T05:12:52.573Z,-10.36
2023-02-23T05:15:20.484Z,-10.31
2023-02-23T05:17:48.764Z,-10.28
2023-02-23T05:20:16.460Z,-10.21
2023-02-23T05:22:43.755Z,-10.06
2023-02-23T05:25:12.177Z,-9.78
2023-02-23T05:27:40.764Z,-9.49
2023-02-23T05:30:10.148Z,-9.12
2023-02-23T05:32:37.421Z,-8.79
2023-02-23T05:35:05.172Z,-8.46
2023-02-23T05:37:33.830Z,-8.11
2023-02-23T05:40:00.993Z,-7.79
2023-02-23T05:42:28.507Z,-7.38
2023-02-23T05:44:56.407Z,-7.01
2023-02-23T05:47:24.060Z,-6.73
2023-02-23T05:49:51.560Z,-6.42
2023-02-23T05:52:19.578Z,-6.04
2023-02-23T05:54:47.031Z,-5.80
2023-02-23T05:57:14.755Z,-5.44
2023-02-23T05:59:42.282Z,-5.24
2023-02-23T06:02:10.202Z,-4.83
2023-02-23T06:04:37.470Z,-4.50
2023-02-23T06:07:05.036Z,-4.18
2023-02-23T06:09:32.339Z,-3.73
2023-02-23T06:12:01.419Z,-3.27
2023-02-23T06:14:29.477Z,-2.98
2023-02-23T06:16:57.138Z,-2.57
2023-02-23T06:19:24.619Z,-2.11
2023-02-23T06:21:53.226Z,-1.70
2023-02-23T06:24:21.503Z,-1.18
2023-02-23T06:26:49.102Z,-0.69
2023-02-23T06:29:17.474Z,-0.16
2023-02-23T06:31:45.364Z,0.34
2023-02-23T06:34:13.010Z,1.02
2023-02-23T06:36:40.174Z,1.48
2023-02-23T06:39:07.660Z,1.53
2023-02-23T06:41:36.564Z,1.97
2023-02-23T06:44:04.431Z,2.15
2023-02-23T06:46:33.654Z,2.35
2023-02-23T06:49:02.335Z,2.42
2023-02-23T06:51:30.219Z,2.94
2023-02-23T06:53:58.982Z,3.36
2023-02-23T06:56:27.152Z,4.02
2023-02-23T06:58:54.522Z,3.96
2023-02-23T07:01:22.129Z,4.83
2023-02-23T07:03:50.130Z,5.32
2023-02-23T07:06:18.062Z,6.01
2023-02-23T07:08:45.502Z,6.59
2023-02-23T07:11:16.257Z,6.79
2023-02-23T07:13:43.864Z,6.95
2023-02-23T07:16:12.449Z,7.28
2023-02-23T07:18:40.298Z,7.62
2023-02-23T07:21:08.333Z,7.72
2023-02-23T07:23:36.490Z,7.73
2023-02-23T07:26:03.973Z,8.03
2023-02-23T07:28:31.672Z,8.41
2023-02-23T07:31:00.276Z,8.34
2023-02-23T07:33:28.098Z,8.91
2023-02-23T07:35:56.055Z,9.34
2023-02-23T07:38:24.121Z,9.81
2023-02-23T07:40:51.930Z,9.36
2023-02-23T07:43:21.753Z,8.42
2023-02-23T07:45:50.000Z,8.54
2023-02-23T07:48:19.095Z,9.35
2023-02-23T07:50:46.267Z,9.11
2023-02-23T07:53:13.656Z,9.93
2023-02-23T07:55:41.297Z,10.40
2023-02-23T07:58:09.402Z,10.98
2023-02-23T08:00:39.182Z,11.77
2023-02-23T08:03:07.712Z,11.97
2023-02-23T08:05:36.347Z,11.85
2023-02-23T08:08:04.236Z,12.11
2023-02-23T08:10:31.806Z,12.63
2023-02-23T08:13:00.608Z,12.96
2023-02-23T08:15:27.694Z,13.14
2023-02-23T08:17:55.136Z,12.99
2023-02-23T08:20:22.435Z,12.74
2023-02-23T08:22:55.140Z,13.26
2023-02-23T08:25:23.204Z,13.08
2023-02-23T08:27:54.169Z,13.27
2023-02-23T08:30:25.589Z,13.46
2023-02-23T08:32:53.186Z,13.48
2023-02-23T08:35:24.232Z,13.59
2023-02-23T08:37:51.775Z,13.63
2023-02-23T08:40:21.060Z,14.29
2023-02-23T08:42:54.751Z,14.73
2023-02-23T08:45:22.234Z,15.02
2023-02-23T08:47:49.836Z,14.97
2023-02-23T08:50:17.419Z,14.97
2023-02-23T08:52:45.186Z,15.24
2023-02-23T08:55:14.218Z,15.36
2023-02-23T08:57:42.157Z,15.28
2023-02-23T09:00:14.658Z,15.32
2023-02-23T09:02:44.232Z,15.39
2023-02-23T09:05:12.413Z,15.62
2023-02-23T09:07:45.419Z,15.51
2023-02-23T09:10:20.368Z,15.68
2023-02-23T09:12:48.231Z,15.69
2023-02-23T09:15:16.056Z,15.53
2023-02-23T09:17:45.364Z,15.49
2023-02-23T09:20:16.137Z,15.45
2023-02-23T09:22:49.121Z,14.78
2023-02-23T09:25:19.946Z,15.34
2023-02-23T09:27:47.724Z,15.72
2023-02-23T09:30:18.103Z,16.15
2023-02-23T09:32:47.176Z,16.30
2023-02-23T09:35:18.443Z,16.39
2023-02-23T09:37:51.679Z,16.56
2023-02-23T09:40:25.702Z,17.07
2023-02-23T09:43:02.932Z,17.59
2023-02-23T09:45:36.179Z,17.60
2023-02-23T09:48:22.893Z,17.59
2023-02-23T09:50:56.212Z,17.74
2023-02-23T09:53:40.916Z,18.06
2023-02-23T09:56:15.163Z,18.06
2023-02-23T09:58:43.082Z,17.79
2023-02-23T10:01:29.693Z,17.61
2023-02-23T10:04:06.564Z,17.47
2023-02-23T10:06:35.113Z,17.52
2023-02-23T10:09:47.167Z,17.72
2023-02-23T10:12:29.492Z,17.92
2023-02-23T10:15:32.550Z,17.96
2023-02-23T10:18:05.341Z,18.09
2023-02-23T10:20:51.443Z,18.34
2023-02-23T10:23:32.390Z,18.60
2023-02-23T10:26:02.538Z,18.60
2023-02-23T10:28:34.986Z,19.07
2023-02-23T10:31:02.852Z,19.57
2023-02-23T10:33:37.871Z,19.61
2023-02-23T10:36:19.955Z,19.70
2023-02-23T10:38:48.065Z,19.18
2023-02-23T10:41:15.815Z,17.91
2023-02-23T10:43:43.786Z,18.14
2023-02-23T10:46:22.038Z,17.39
2023-02-23T10:48:51.729Z,16.93
2023-02-23T10:51:26.211Z,17.26
2023-02-23T10:53:54.361Z,17.08
2023-02-23T10:56:23.907Z,17.32
2023-02-23T10:58:59.653Z,17.60
2023-02-23T11:01:41.743Z,18.15
2023-02-23T11:04:29.607Z,17.55
2023-02-23T11:07:14.343Z,17.99
2023-02-23T11:09:47.600Z,18.51
2023-02-23T11:12:23.061Z,19.09
2023-02-23T11:14:52.628Z,19.64
2023-02-23T11:17:38.537Z,19.98
2023-02-23T11:20:23.516Z,19.90
2023-02-23T11:22:52.490Z,19.26
2023-02-23T11:25:30.542Z,19.42
2023-02-23T11:28:00.414Z,18.95
2023-02-23T11:30:38.440Z,17.96
2023-02-23T11:33:10.804Z,17.38
2023-02-23T11:35:38.795Z,17.06
2023-02-23T11:38:35.656Z,16.50
2023-02-23T11:41:06.139Z,16.74
2023-02-23T11:43:33.967Z,16.47
2023-02-23T11:46:04.508Z,16.53
2023-02-23T11:48:35.449Z,16.98
2023-02-23T11:51:03.206Z,17.56
2023-02-23T11:53:35.577Z,17.88
2023-02-23T11:56:13.570Z,18.06
2023-02-23T11:58:46.400Z,18.21
2023-02-23T12:01:24.296Z,18.50
2023-02-23T12:03:58.542Z,18.87
2023-02-23T12:06:36.413Z,18.97
2023-02-23T12:09:18.698Z,19.03
2023-02-23T12:12:01.580Z,18.96
2023-02-23T12:14:52.346Z,18.71
2023-02-23T12:17:30.664Z,18.80
2023-02-23T12:20:11.569Z,18.67
2023-02-23T12:22:47.000Z,18.50
2023-02-23T12:25:24.047Z,18.55
2023-02-23T12:28:10.330Z,18.70
2023-02-23T12:30:47.023Z,18.80
2023-02-23T12:33:38.978Z,18.91
2023-02-23T12:36:18.714Z,18.90
2023-02-23T12:38:46.271Z,18.73
2023-02-23T12:41:18.003Z,17.61
2023-02-23T12:43:53.395Z,16.28
2023-02-23T12:46:32.383Z,14.89
2023-02-23T12:49:02.729Z,13.52
2023-02-23T12:51:41.580Z,12.07
2023-02-23T12:54:12.190Z,10.46
2023-02-23T12:56:45.322Z,9.64
2023-02-23T12:59:20.620Z,7.90
2023-02-23T13:01:58.889Z,6.74
2023-02-23T13:04:50.730Z,5.93
2023-02-23T13:07:37.030Z,5.07
2023-02-23T13:10:07.234Z,4.73
2023-02-23T13:12:54.036Z,3.86
2023-02-23T13:15:21.720Z,3.71
2023-02-23T13:18:07.148Z,3.44
2023-02-23T13:21:02.105Z,3.00
2023-02-23T13:23:33.665Z,2.61
2023-02-23T13:26:13.523Z,2.05
2023-02-23T13:29:16.157Z,1.72
2023-02-23T13:31:45.088Z,1.63
2023-02-23T13:34:21.661Z,1.57
2023-02-23T13:36:51.092Z,1.23
2023-02-23T13:39:45.350Z,0.97
2023-02-23T13:42:28.351Z,0.95
2023-02-23T13:45:18.902Z,0.91
2023-02-23T13:47:57.165Z,0.71
2023-02-23T13:50:27.594Z,0.49
2023-02-23T13:52:58.527Z,0.42
2023-02-23T13:55:40.063Z,0.35
2023-02-23T13:58:17.339Z,0.18
2023-02-23T14:00:53.928Z,0.31
2023-02-23T14:03:27.581Z,0.30
2023-02-23T14:06:00.173Z,0.27
2023-02-23T14:08:38.079Z,0.21
2023-02-23T14:11:06.847Z,0.10
2023-02-23T14:13:41.620Z,-0.01
2023-02-23T14:16:18.745Z,-0.11
2023-02-23T14:18:58.341Z,-0.23
2023-02-23T14:21:35.101Z,-0.34
2023-02-23T14:24:22.611Z,-0.38
2023-02-23T14:27:07.445Z,-0.45
2023-02-23T14:30:02.728Z,-0.65
2023-02-23T14:32:39.562Z,-0.75
2023-02-23T14:35:33.070Z,-0.78
2023-02-23T14:38:04.219Z,-0.88
2023-02-23T14:40:35.597Z,-1.02
2023-02-23T14:43:23.732Z,-1.05
2023-02-23T14:45:55.710Z,-1.03
2023-02-23T14:48:23.816Z,-1.03
2023-02-23T14:50:52.001Z,-1.11
2023-02-23T14:53:22.970Z,-1.15
2023-02-23T14:55:51.095Z,-1.30
2023-02-23T14:58:33.774Z,-1.42
2023-02-23T15:01:01.118Z,-1.51
2023-02-23T15:03:28.421Z,-1.76
2023-02-23T15:05:59.009Z,-1.96
2023-02-23T15:08:29.265Z,-2.12
2023-02-23T15:11:14.831Z,-2.28
2023-02-23T15:13:48.442Z,-2.50
2023-02-23T15:16:24.192Z,-2.75
2023-02-23T15:18:52.076Z,-2.89
2023-02-23T15:21:24.193Z,-3.00
2023-02-23T15:23:58.843Z,-3.10
2023-02-23T15:26:32.156Z,-3.23
2023-02-23T15:29:05.714Z,-3.39
2023-02-23T15:31:34.939Z,-3.52
2023-02-23T15:34:02.728Z,-3.62
2023-02-23T15:36:35.131Z,-3.76
2023-02-23T15:39:05.847Z,-3.86
2023-02-23T15:41:38.316Z,-4.02
2023-02-23T15:44:19.522Z,-4.12
2023-02-23T15:46:53.344Z,-4.29
2023-02-23T15:49:22.233Z,-4.42
2023-02-23T15:51:52.256Z,-4.55
2023-02-23T15:54:24.059Z,-4.63
2023-02-23T15:56:57.645Z,-4.71
2023-02-23T15:59:35.399Z,-4.78
2023-02-23T16:02:14.716Z,-4.83
2023-02-23T16:04:49.044Z,-4.82
2023-02-23T16:07:25.231Z,-4.80
2023-02-23T16:09:55.329Z,-4.76
2023-02-23T16:12:35.060Z,-4.72
2023-02-23T16:15:06.844Z,-4.68
2023-02-23T16:17:44.911Z,-4.66
2023-02-23T16:20:43.292Z,-4.64
2023-02-23T16:23:33.278Z,-4.58
2023-02-23T16:26:16.954Z,-4.55
2023-02-23T16:28:46.650Z,-4.50
2023-02-23T16:31:23.722Z,-4.47
2023-02-23T16:34:00.183Z,-4.46
2023-02-23T16:36:40.468Z,-4.41
2023-02-23T16:39:12.223Z,-4.40
2023-02-23T16:41:39.767Z,-4.36
2023-02-23T16:44:08.058Z,-4.32
2023-02-23T16:47:03.402Z,-4.23
2023-02-23T16:49:31.548Z,-4.19
2023-02-23T16:52:00.305Z,-4.12
2023-02-23T16:54:28.044Z,-4.12
2023-02-23T16:56:56.392Z,-4.09
2023-02-23T16:59:25.418Z,-4.07
2023-02-23T17:01:52.779Z,-4.12
2023-02-23T17:04:21.162Z,-4.11
2023-02-23T17:06:53.055Z,-4.07
2023-02-23T17:09:19.980Z,-4.15
2023-02-23T17:11:47.517Z,-4.19
2023-02-23T17:14:24.755Z,-4.18
2023-02-23T17:16:52.027Z,-4.25
2023-02-23T17:19:20.122Z,-4.29
2023-02-23T17:21:47.371Z,-4.30
2023-02-23T17:24:14.519Z,-4.29
2023-02-23T17:26:42.488Z,-4.34
2023-02-23T17:29:09.680Z,-4.40
2023-02-23T17:31:38.614Z,-4.39
2023-02-23T17:34:06.772Z,-4.42
2023-02-23T17:36:33.869Z,-4.47
2023-02-23T17:39:02.207Z,-4.40
2023-02-23T17:41:29.628Z,-4.43
2023-02-23T17:43:57.080Z,-4.44
2023-02-23T17:46:24.639Z,-4.46
2023-02-23T17:48:53.864Z,-4.38
2023-02-23T17:51:23.023Z,-4.41
2023-02-23T17:53:50.494Z,-4.38
2023-02-23T17:56:18.312Z,-4.32
2023-02-23T17:58:45.800Z,-4.31
2023-02-23T18:01:13.601Z,-4.34
2023-02-23T18:03:40.977Z,-4.32
2023-02-23T18:06:12.960Z,-4.34
2023-02-23T18:08:43.309Z,-4.36
2023-02-23T18:11:10.845Z,-4.35
2023-02-23T18:13:38.332Z,-4.27
2023-02-23T18:16:11.945Z,-4.30
2023-02-23T18:18:42.668Z,-4.22
2023-02-23T18:21:16.153Z,-4.19
2023-02-23T18:23:43.961Z,-4.16
2023-02-23T18:26:20.459Z,-4.16
2023-02-23T18:28:48.513Z,-4.11
2023-02-23T18:31:24.589Z,-4.08
2023-02-23T18:33:55.132Z,-4.06
2023-02-23T18:36:29.083Z,-4.06
2023-02-23T18:38:59.977Z,-4.05
2023-02-23T18:41:33.495Z,-4.05
2023-02-23T18:44:03.576Z,-4.08
2023-02-23T18:46:31.716Z,-4.12
2023-02-23T18:48:59.275Z,-4.15
2023-02-23T18:51:27.297Z,-4.19
2023-02-23T18:53:55.371Z,-4.24
2023-02-23T18:56:28.506Z,-4.26
2023-02-23T18:59:01.854Z,-4.32
2023-02-23T19:01:31.796Z,-4.30
2023-02-23T19:04:02.601Z,-4.32
2023-02-23T19:06:31.152Z,-4.35
2023-02-23T19:09:00.608Z,-4.40
2023-02-23T19:11:31.007Z,-4.40
2023-02-23T19:14:05.606Z,-4.43
2023-02-23T19:16:35.046Z,-4.49
2023-02-23T19:19:04.887Z,-4.49
2023-02-23T19:21:32.650Z,-4.48
2023-02-23T19:24:01.881Z,-4.52
2023-02-23T19:26:31.328Z,-4.57
2023-02-23T19:28:59.112Z,-4.61
2023-02-23T19:31:27.254Z,-4.60
2023-02-23T19:33:57.052Z,-4.61
2023-02-23T19:36:29.983Z,-4.67
2023-02-23T19:39:06.717Z,-4.66
2023-02-23T19:41:34.717Z,-4.65
2023-02-23T19:44:02.425Z,-4.64
2023-02-23T19:46:30.009Z,-4.62
2023-02-23T19:48:57.561Z,-4.61
2023-02-23T19:51:25.435Z,-4.64
2023-02-23T19:53:57.377Z,-4.70
2023-02-23T19:56:28.122Z,-4.64
2023-02-23T19:58:56.333Z,-4.66
2023-02-23T20:01:27.641Z,-4.66
2023-02-23T20:04:02.204Z,-4.63
2023-02-23T20:06:34.531Z,-4.64
2023-02-23T20:09:03.487Z,-4.62
2023-02-23T20:11:31.879Z,-4.58
2023-02-23T20:14:00.590Z,-4.59
2023-02-23T20:16:29.766Z,-4.55
2023-02-23T20:18:59.218Z,-4.53
2023-02-23T20:21:28.808Z,-4.53
2023-02-23T20:23:56.790Z,-4.52
2023-02-23T20:26:26.804Z,-4.50
2023-02-23T20:28:55.177Z,-4.52
2023-02-23T20:31:29.794Z,-4.52
2023-02-23T20:34:00.467Z,-4.48
2023-02-23T20:36:27.769Z,-4.48
2023-02-23T20:38:55.110Z,-4.51
2023-02-23T20:41:22.679Z,-4.50
2023-02-23T20:43:51.860Z,-4.48
2023-02-23T20:46:20.092Z,-4.49
2023-02-23T20:48:49.482Z,-4.46
2023-02-23T20:51:19.548Z,-4.43
2023-02-23T20:53:48.327Z,-4.39
2023-02-23T20:56:17.701Z,-4.31
2023-02-23T20:58:46.429Z,-4.34
2023-02-23T21:01:21.019Z,-4.30
2023-02-23T21:03:51.779Z,-4.24
2023-02-23T21:06:23.344Z,-4.26
2023-02-23T21:08:55.920Z,-4.21
2023-02-23T21:11:27.103Z,-4.23
2023-02-23T21:13:54.662Z,-4.28
2023-02-23T21:16:23.887Z,-4.29
2023-02-23T21:19:06.554Z,-4.22
2023-02-23T21:21:46.785Z,-4.25
2023-02-23T21:24:16.383Z,-4.30
2023-02-23T21:26:44.233Z,-4.23
2023-02-23T21:29:16.755Z,-4.22
2023-02-23T21:31:46.436Z,-4.30
2023-02-23T21:34:15.652Z,-4.24
2023-02-23T21:36:43.035Z,-4.25
2023-02-23T21:39:10.280Z,-4.29
2023-02-23T21:41:37.916Z,-4.25
2023-02-23T21:44:08.894Z,-4.29
2023-02-23T21:46:36.377Z,-4.31
2023-02-23T21:49:07.493Z,-4.25
2023-02-23T21:51:34.915Z,-4.18
2023-02-23T21:54:02.711Z,-4.25
2023-02-23T21:56:29.919Z,-4.24
2023-02-23T21:58:57.830Z,-4.23
2023-02-23T22:01:26.844Z,-4.27
2023-02-23T22:03:55.194Z,-4.17
2023-02-23T22:06:24.953Z,-4.24
2023-02-23T22:08:53.179Z,-4.14
2023-02-23T22:11:24.901Z,-4.16
2023-02-23T22:14:00.549Z,-4.17
2023-02-23T22:16:33.186Z,-4.19
2023-02-23T22:19:04.138Z,-4.18
2023-02-23T22:21:33.663Z,-4.18
2023-02-23T22:24:05.073Z,-4.17
2023-02-23T22:26:34.613Z,-4.13
2023-02-23T22:29:01.807Z,-4.19
2023-02-23T22:31:29.115Z,-4.17
2023-02-23T22:33:56.718Z,-4.19
2023-02-23T22:36:23.841Z,-4.19
2023-02-23T22:38:51.158Z,-4.16
2023-02-23T22:41:18.698Z,-4.17
2023-02-23T22:43:47.289Z,-4.21
2023-02-23T22:46:16.654Z,-4.18
2023-02-23T22:48:45.138Z,-4.19
2023-02-23T22:51:14.390Z,-4.19
2023-02-23T22:53:41.884Z,-4.14
2023-02-23T22:56:09.743Z,-4.10
2023-02-23T22:58:37.085Z,-3.98
2023-02-23T23:01:09.857Z,-4.00
2023-02-23T23:03:38.472Z,-3.97
2023-02-23T23:06:08.382Z,-3.94
2023-02-23T23:08:43.678Z,-3.86
2023-02-23T23:11:12.197Z,-3.85
2023-02-23T23:13:44.710Z,-3.78
2023-02-23T23:16:16.892Z,-3.72
2023-02-23T23:18:57.124Z,-3.74
2023-02-23T23:21:26.527Z,-3.70
2023-02-23T23:23:57.123Z,-3.68
2023-02-23T23:26:26.849Z,-3.66
2023-02-23T23:28:56.663Z,-3.63
2023-02-23T23:31:28.378Z,-3.64
2023-02-23T23:33:59.935Z,-3.64
2023-02-23T23:36:43.159Z,-3.65
2023-02-23T23:39:16.464Z,-3.69
2023-02-23T23:41:46.347Z,-3.66
2023-02-23T23:44:14.320Z,-3.63
2023-02-23T23:46:43.971Z,-3.64
2023-02-23T23:49:17.566Z,-3.71
2023-02-23T23:51:50.662Z,-3.67
2023-02-23T23:54:21.767Z,-3.68
2023-02-23T23:56:51.204Z,-3.69
2023-02-23T23:59:23.395Z,-3.73
